Time;durP1;ratioP1;P1;durP2;ratioP2;P2;SDS_P1;SDS_P2;PMS_P1;PMS_P2;Temp;Humidity;BMP_temperature;BMP_pressure;BME280_temperature;BME280_humidity;BME280_pressure;Samples;Min_cycle;Max_cycle;Signal;HPM_P1;HPM_P2
2024/03/21 00:02:21;;;;;;;3.95;2.95;;;;;;;;;;5039624;28;20068;-65
2024/03/21 00:04:48;;;;;;;4.85;3.00;;;;;;;;;;5013080;28;20029;-65
2024/03/21 00:07:14;;;;;;;4.32;3.03;;;;;;;;;;5036472;28;20044;-65
2024/03/21 00:09:40;;;;;;;5.38;3.28;;;;;;;;;;5034692;28;20052;-65
2024/03/21 00:12:07;;;;;;;5.00;3.60;;;;;;;;;;5032549;28;20041;-65
2024/03/21 00:14:35;;;;;;;4.70;3.15;;;;;;;;;;5034969;28;20515;-65
2024/03/21 00:17:01;;;;;;;4.40;2.85;;;;;;;;;;5016383;28;20048;-65
2024/03/21 00:19:28;;;;;;;7.03;3.13;;;;;;;;;;5043474;28;20048;-65
2024/03/21 00:21:55;;;;;;;7.03;3.10;;;;;;;;;;5033322;28;20057;-65
2024/03/21 00:24:21;;;;;;;4.65;3.08;;;;;;;;;;5024596;28;20541;-65
2024/03/21 00:26:49;;;;;;;5.43;3.05;;;;;;;;;;5020209;28;20045;-65
2024/03/21 00:29:15;;;;;;;6.82;3.17;;;;;;;;;;5014230;28;20041;-65
2024/03/21 00:31:41;;;;;;;7.95;3.38;;;;;;;;;;5035191;28;20041;-65
2024/03/21 00:34:08;;;;;;;6.85;3.38;;;;;;;;;;5036638;28;20041;-65
2024/03/21 00:36:35;;;;;;;5.38;3.42;;;;;;;;;;5034833;28;20057;-65
2024/03/21 00:39:02;;;;;;;4.90;3.10;;;;;;;;;;5037889;28;20387;-65
2024/03/21 00:41:29;;;;;;;5.35;3.22;;;;;;;;;;5033155;28;20053;-65
2024/03/21 00:43:55;;;;;;;4.32;3.45;;;;;;;;;;5034753;28;20048;-65
2024/03/21 00:46:21;;;;;;;5.15;3.47;;;;;;;;;;5034121;28;20052;-65
2024/03/21 00:48:47;;;;;;;5.30;3.08;;;;;;;;;;5030529;28;20044;-65
2024/03/21 00:51:13;;;;;;;4.63;3.40;;;;;;;;;;5039143;28;20045;-65
2024/03/21 00:53:40;;;;;;;5.55;3.45;;;;;;;;;;5037735;28;20411;-65
2024/03/21 00:56:06;;;;;;;5.18;3.38;;;;;;;;;;5020996;28;20037;-65
2024/03/21 00:58:33;;;;;;;6.35;3.47;;;;;;;;;;5029693;28;20048;-65
2024/03/21 01:00:59;;;;;;;7.63;3.38;;;;;;;;;;5038291;28;20502;-65
2024/03/21 01:03:25;;;;;;;6.50;3.20;;;;;;;;;;5033637;28;20056;-66
2024/03/21 01:05:55;;;;;;;5.63;3.30;;;;;;;;;;5031050;28;20390;-65
2024/03/21 01:08:23;;;;;;;4.88;2.97;;;;;;;;;;5029434;28;20060;-65
2024/03/21 01:10:50;;;;;;;4.65;3.00;;;;;;;;;;5016751;28;20041;-65
2024/03/21 01:13:18;;;;;;;8.65;3.55;;;;;;;;;;5010248;28;20045;-65
2024/03/21 01:15:45;;;;;;;5.97;3.97;;;;;;;;;;5000248;28;20685;-64
2024/03/21 01:18:11;;;;;;;6.40;3.40;;;;;;;;;;5032737;28;20048;-64
2024/03/21 01:20:40;;;;;;;6.53;3.70;;;;;;;;;;5016022;28;20045;-65
2024/03/21 01:23:10;;;;;;;6.38;3.38;;;;;;;;;;5014437;28;20041;-65
2024/03/21 01:25:37;;;;;;;5.38;3.03;;;;;;;;;;5034932;28;20414;-65
2024/03/21 01:28:04;;;;;;;8.07;3.28;;;;;;;;;;5020292;28;20037;-65
2024/03/21 01:30:32;;;;;;;4.82;3.25;;;;;;;;;;5035941;28;20060;-65
2024/03/21 01:32:58;;;;;;;6.00;3.17;;;;;;;;;;5033263;28;20057;-64
2024/03/21 01:35:25;;;;;;;7.10;3.72;;;;;;;;;;5008859;28;20537;-65
2024/03/21 01:37:53;;;;;;;6.50;3.47;;;;;;;;;;5013890;28;20044;-65
2024/03/21 01:40:19;;;;;;;4.60;3.08;;;;;;;;;;5019975;28;20049;-65
2024/03/21 01:42:48;;;;;;;5.80;3.85;;;;;;;;;;5015982;28;20056;-65
2024/03/21 01:45:16;;;;;;;11.70;4.43;;;;;;;;;;5033134;28;20557;-65
2024/03/21 01:47:43;;;;;;;9.05;5.75;;;;;;;;;;5016145;28;20045;-65
2024/03/21 01:50:10;;;;;;;9.50;5.40;;;;;;;;;;5037107;28;20082;-64
2024/03/21 01:52:37;;;;;;;7.88;5.15;;;;;;;;;;5027673;28;20036;-64
2024/03/21 01:55:04;;;;;;;9.40;5.22;;;;;;;;;;5021055;28;20053;-65
2024/03/21 01:57:33;;;;;;;10.38;5.13;;;;;;;;;;5029403;28;20049;-64
2024/03/21 01:59:59;;;;;;;7.30;4.50;;;;;;;;;;5044779;28;20041;-65
2024/03/21 02:02:26;;;;;;;5.35;3.90;;;;;;;;;;5028119;28;20391;-66
2024/03/21 02:04:53;;;;;;;5.63;3.55;;;;;;;;;;5005853;28;20040;-66
2024/03/21 02:07:19;;;;;;;5.75;4.05;;;;;;;;;;5035650;28;20049;-65
2024/03/21 02:09:45;;;;;;;6.05;3.40;;;;;;;;;;5039851;28;20553;-64
2024/03/21 02:12:12;;;;;;;5.60;3.42;;;;;;;;;;5035987;28;20044;-65
2024/03/21 02:14:39;;;;;;;6.10;3.35;;;;;;;;;;5032436;28;20037;-66
2024/03/21 02:17:06;;;;;;;12.00;3.50;;;;;;;;;;5035694;28;20056;-66
2024/03/21 02:19:32;;;;;;;6.47;4.05;;;;;;;;;;5039214;28;20108;-64
2024/03/21 02:24:43;;;;;;;4.97;2.97;;;;;;;;;;5037088;28;20049;-64
2024/03/21 02:27:09;;;;;;;7.70;2.75;;;;;;;;;;5043387;28;20033;-65
2024/03/21 02:29:35;;;;;;;5.03;2.97;;;;;;;;;;5034484;28;20050;-64
2024/03/21 02:32:02;;;;;;;7.97;3.10;;;;;;;;;;5018994;28;20438;-65
2024/03/21 02:34:28;;;;;;;4.53;2.95;;;;;;;;;;5039603;28;20537;-65
2024/03/21 02:36:55;;;;;;;3.10;2.75;;;;;;;;;;5036404;28;20060;-65
2024/03/21 02:39:21;;;;;;;3.58;2.90;;;;;;;;;;5037652;28;20056;-64
2024/03/21 02:41:47;;;;;;;5.85;2.80;;;;;;;;;;5034622;28;20051;-65
2024/03/21 02:44:13;;;;;;;3.78;2.70;;;;;;;;;;5036018;28;20410;-64
2024/03/21 02:46:40;;;;;;;4.78;3.05;;;;;;;;;;5032899;28;20080;-64
2024/03/21 02:49:06;;;;;;;6.25;2.63;;;;;;;;;;5044167;28;20045;-64
2024/03/21 02:51:32;;;;;;;4.13;2.85;;;;;;;;;;5037906;28;20426;-63
2024/03/21 02:53:58;;;;;;;3.80;2.53;;;;;;;;;;5015465;28;20414;-64
2024/03/21 02:56:24;;;;;;;5.45;2.90;;;;;;;;;;5036263;28;20065;-64
2024/03/21 02:58:50;;;;;;;4.85;2.67;;;;;;;;;;5041304;28;20037;-64
2024/03/21 03:01:17;;;;;;;2.55;2.35;;;;;;;;;;5035956;28;20053;-65
2024/03/21 03:03:43;;;;;;;3.70;2.88;;;;;;;;;;5032727;28;20523;-65
2024/03/21 03:06:10;;;;;;;3.45;2.40;;;;;;;;;;5038113;28;20431;-64
2024/03/21 03:08:36;;;;;;;6.03;2.70;;;;;;;;;;5037073;28;20045;-65
2024/03/21 03:11:02;;;;;;;3.58;2.70;;;;;;;;;;5015265;28;20033;-63
2024/03/21 03:13:28;;;;;;;4.75;2.58;;;;;;;;;;5032475;28;20057;-67
2024/03/21 03:15:54;;;;;;;6.20;2.88;;;;;;;;;;5039630;28;20522;-66
2024/03/21 03:18:20;;;;;;;4.82;2.08;;;;;;;;;;5041811;28;20059;-65
2024/03/21 03:20:46;;;;;;;4.18;2.75;;;;;;;;;;5043531;28;20049;-64
2024/03/21 03:23:12;;;;;;;4.93;2.40;;;;;;;;;;5017393;28;20052;-64
2024/03/21 03:25:40;;;;;;;2.90;2.40;;;;;;;;;;5039747;28;20041;-65
2024/03/21 03:28:06;;;;;;;5.47;2.40;;;;;;;;;;5022101;28;20034;-65
2024/03/21 03:30:34;;;;;;;5.03;2.60;;;;;;;;;;5036657;28;20041;-65
2024/03/21 03:35:34;;;;;;;3.58;2.42;;;;;;;;;;5041603;28;20037;-65
2024/03/21 03:35:46;;;;;;;8.23;3.15;;;;;;;;;;5033470;28;20053;-65
2024/03/21 03:38:15;;;;;;;4.53;2.40;;;;;;;;;;5021346;28;20545;-65
2024/03/21 03:40:42;;;;;;;4.97;2.75;;;;;;;;;;5032427;28;20436;-65
2024/03/21 03:43:08;;;;;;;3.58;2.92;;;;;;;;;;5037067;28;20049;-65
2024/03/21 03:45:34;;;;;;;3.38;2.70;;;;;;;;;;5042391;28;20041;-66
2024/03/21 03:48:00;;;;;;;4.32;2.28;;;;;;;;;;5040137;28;20053;-65
2024/03/21 03:50:26;;;;;;;5.13;3.10;;;;;;;;;;5034266;28;20049;-65
2024/03/21 03:52:52;;;;;;;4.45;3.17;;;;;;;;;;5032247;28;20043;-65
2024/03/21 03:55:18;;;;;;;4.18;2.83;;;;;;;;;;5025713;28;20045;-64
2024/03/21 03:57:44;;;;;;;4.57;3.03;;;;;;;;;;5039889;28;20045;-64
2024/03/21 04:00:10;;;;;;;3.92;2.50;;;;;;;;;;5035651;28;20415;-64
2024/03/21 04:02:43;;;;;;;5.97;2.88;;;;;;;;;;5013746;28;20037;-65
2024/03/21 04:05:09;;;;;;;4.13;3.00;;;;;;;;;;5030865;28;20026;-65
2024/03/21 04:07:36;;;;;;;4.78;2.85;;;;;;;;;;5017749;28;20052;-65
2024/03/21 04:10:05;;;;;;;6.72;3.00;;;;;;;;;;5014113;28;20045;-64
2024/03/21 04:12:32;;;;;;;4.13;3.05;;;;;;;;;;5030165;28;20045;-66
2024/03/21 04:14:58;;;;;;;5.15;3.22;;;;;;;;;;5017064;28;20049;-66
2024/03/21 04:17:24;;;;;;;7.35;4.53;;;;;;;;;;5013483;28;20389;-66
2024/03/21 04:19:50;;;;;;;8.05;3.97;;;;;;;;;;5035521;28;20489;-66
2024/03/21 04:22:16;;;;;;;5.32;3.72;;;;;;;;;;5035409;28;20049;-66
2024/03/21 04:24:43;;;;;;;6.80;3.63;;;;;;;;;;5016774;28;20044;-65
2024/03/21 04:27:09;;;;;;;3.45;3.08;;;;;;;;;;5039138;28;20421;-67
2024/03/21 04:29:35;;;;;;;5.68;3.80;;;;;;;;;;5032386;28;20048;-66
2024/03/21 04:32:01;;;;;;;5.03;3.40;;;;;;;;;;5039726;28;20045;-66
2024/03/21 04:34:27;;;;;;;5.35;2.67;;;;;;;;;;5038615;28;20045;-66
2024/03/21 04:36:53;;;;;;;5.13;2.88;;;;;;;;;;5034758;28;20033;-66
2024/03/21 04:39:20;;;;;;;6.68;3.28;;;;;;;;;;5034849;28;20040;-65
2024/03/21 04:41:46;;;;;;;4.47;2.90;;;;;;;;;;5035115;28;20104;-65
2024/03/21 04:44:12;;;;;;;4.00;2.80;;;;;;;;;;5029107;28;20044;-65
2024/03/21 04:46:38;;;;;;;4.10;2.63;;;;;;;;;;5036107;28;20026;-66
2024/03/21 04:49:04;;;;;;;5.55;3.10;;;;;;;;;;5031566;28;20406;-66
2024/03/21 04:51:30;;;;;;;7.25;3.83;;;;;;;;;;5040945;28;20044;-65
2024/03/21 04:53:56;;;;;;;4.43;2.78;;;;;;;;;;5034467;28;20040;-64
2024/03/21 04:56:22;;;;;;;8.00;3.80;;;;;;;;;;5034022;28;20041;-64
2024/03/21 04:58:51;;;;;;;6.78;3.50;;;;;;;;;;5033877;28;20044;-65
2024/03/21 05:01:17;;;;;;;3.85;3.20;;;;;;;;;;5021643;28;20494;-65
2024/03/21 05:03:43;;;;;;;3.50;2.90;;;;;;;;;;5029179;28;20041;-65
2024/03/21 05:06:09;;;;;;;5.68;3.17;;;;;;;;;;5042298;28;20025;-64
2024/03/21 05:08:35;;;;;;;4.95;3.00;;;;;;;;;;5018503;28;20375;-63
2024/03/21 05:11:01;;;;;;;4.10;2.85;;;;;;;;;;5037548;28;20029;-64
2024/03/21 05:13:27;;;;;;;3.83;2.70;;;;;;;;;;5035695;28;20053;-63
2024/03/21 05:15:53;;;;;;;3.28;2.67;;;;;;;;;;5037725;28;20044;-64
2024/03/21 05:18:20;;;;;;;3.08;2.47;;;;;;;;;;5027702;28;20438;-65
2024/03/21 05:20:46;;;;;;;3.35;2.65;;;;;;;;;;5021149;28;20186;-64
2024/03/21 05:23:12;;;;;;;3.20;2.78;;;;;;;;;;5018450;28;20029;-65
2024/03/21 05:25:39;;;;;;;3.45;2.63;;;;;;;;;;5046294;28;20041;-64
2024/03/21 05:28:05;;;;;;;5.03;2.55;;;;;;;;;;5038055;28;20045;-64
2024/03/21 05:30:31;;;;;;;6.25;2.83;;;;;;;;;;5042162;28;20033;-65
2024/03/21 05:32:57;;;;;;;4.72;2.65;;;;;;;;;;5027898;28;20033;-65
2024/03/21 05:35:23;;;;;;;3.65;3.10;;;;;;;;;;5036759;28;20072;-67
2024/03/21 05:37:49;;;;;;;6.00;2.53;;;;;;;;;;5037378;28;20041;-65
2024/03/21 05:40:15;;;;;;;3.30;2.35;;;;;;;;;;5036816;28;20049;-66
2024/03/21 05:42:44;;;;;;;4.88;2.13;;;;;;;;;;5040568;28;20046;-65
2024/03/21 05:45:10;;;;;;;2.57;2.20;;;;;;;;;;5039727;28;20033;-67
2024/03/21 05:47:37;;;;;;;4.72;2.40;;;;;;;;;;5036944;28;20291;-66
2024/03/21 05:50:03;;;;;;;2.88;2.58;;;;;;;;;;5036327;28;20052;-64
2024/03/21 05:52:29;;;;;;;3.08;2.50;;;;;;;;;;5033081;28;20061;-62
2024/03/21 05:54:55;;;;;;;2.78;2.28;;;;;;;;;;5020856;28;20068;-62
2024/03/21 05:57:24;;;;;;;4.43;2.55;;;;;;;;;;5040383;28;20048;-62
2024/03/21 05:59:54;;;;;;;3.08;2.38;;;;;;;;;;5026846;28;20056;-60
2024/03/21 06:02:21;;;;;;;3.95;2.80;;;;;;;;;;5037742;28;20029;-62
2024/03/21 06:04:47;;;;;;;6.90;2.70;;;;;;;;;;5040966;28;20488;-62
2024/03/21 06:07:13;;;;;;;5.07;2.53;;;;;;;;;;5043349;28;20053;-62
2024/03/21 06:09:39;;;;;;;5.32;2.67;;;;;;;;;;5039773;28;20053;-62
2024/03/21 06:12:06;;;;;;;3.47;2.50;;;;;;;;;;5015121;28;20037;-63
2024/03/21 06:14:33;;;;;;;4.03;2.28;;;;;;;;;;5038053;28;20056;-62
2024/03/21 06:16:59;;;;;;;3.97;2.60;;;;;;;;;;5044701;28;20041;-62
2024/03/21 06:19:25;;;;;;;2.92;2.53;;;;;;;;;;5042892;28;20041;-63
2024/03/21 06:21:52;;;;;;;4.22;2.65;;;;;;;;;;5025036;28;20041;-62
2024/03/21 06:24:18;;;;;;;4.13;2.38;;;;;;;;;;5021106;28;20040;-63
2024/03/21 06:26:44;;;;;;;3.53;2.63;;;;;;;;;;5046146;28;20033;-63
2024/03/21 06:29:12;;;;;;;5.68;3.10;;;;;;;;;;5043186;28;20032;-63
2024/03/21 06:31:38;;;;;;;5.30;3.28;;;;;;;;;;5028809;28;20051;-63
2024/03/21 06:34:04;;;;;;;4.28;3.50;;;;;;;;;;5034519;28;20403;-64
2024/03/21 06:36:30;;;;;;;4.80;3.28;;;;;;;;;;5043219;28;20060;-65
2024/03/21 06:38:58;;;;;;;4.97;3.42;;;;;;;;;;5034331;28;20035;-65
2024/03/21 06:41:24;;;;;;;5.40;3.28;;;;;;;;;;5038621;28;20422;-65
2024/03/21 06:43:50;;;;;;;4.70;3.20;;;;;;;;;;5039662;28;20049;-68
2024/03/21 06:46:16;;;;;;;4.18;3.15;;;;;;;;;;5042992;28;20033;-65
2024/03/21 06:48:43;;;;;;;4.70;3.63;;;;;;;;;;5037654;28;20045;-64
2024/03/21 06:51:09;;;;;;;7.10;4.15;;;;;;;;;;5042217;28;20045;-65
2024/03/21 06:53:35;;;;;;;13.98;5.68;;;;;;;;;;5039661;28;20442;-66
2024/03/21 06:56:02;;;;;;;13.15;6.22;;;;;;;;;;5025565;28;20033;-65
2024/03/21 06:58:29;;;;;;;9.98;5.03;;;;;;;;;;5035839;28;20044;-65
2024/03/21 07:00:56;;;;;;;9.05;5.05;;;;;;;;;;5035785;28;20057;-64
2024/03/21 07:03:22;;;;;;;5.78;4.00;;;;;;;;;;5040433;28;20037;-64
2024/03/21 07:05:48;;;;;;;6.13;4.05;;;;;;;;;;5034969;28;20033;-64
2024/03/21 07:08:15;;;;;;;7.05;3.40;;;;;;;;;;5039626;28;20056;-64
2024/03/21 07:10:41;;;;;;;3.60;2.95;;;;;;;;;;5041400;28;20041;-64
2024/03/21 07:13:07;;;;;;;4.43;3.22;;;;;;;;;;5037232;28;20074;-64
2024/03/21 07:15:34;;;;;;;9.15;4.15;;;;;;;;;;5036862;28;20034;-67
2024/03/21 07:18:00;;;;;;;4.47;3.58;;;;;;;;;;5038963;28;20041;-66
2024/03/21 07:20:26;;;;;;;4.88;3.25;;;;;;;;;;5018176;28;20036;-65
2024/03/21 07:22:52;;;;;;;4.90;3.65;;;;;;;;;;5037280;28;20049;-64
2024/03/21 07:25:18;;;;;;;6.10;3.25;;;;;;;;;;5031781;28;20054;-64
2024/03/21 07:27:44;;;;;;;5.20;3.60;;;;;;;;;;5034914;28;20507;-63
2024/03/21 07:30:16;;;;;;;6.07;4.28;;;;;;;;;;5038136;28;20045;-63
2024/03/21 07:32:42;;;;;;;7.50;3.88;;;;;;;;;;5032345;28;20080;-63
2024/03/21 07:35:08;;;;;;;7.07;3.90;;;;;;;;;;5009790;28;20040;-63
2024/03/21 07:37:34;;;;;;;4.22;3.03;;;;;;;;;;5033681;28;20082;-62
2024/03/21 07:40:02;;;;;;;6.38;3.80;;;;;;;;;;5041205;28;20125;-65
2024/03/21 07:42:29;;;;;;;6.20;3.78;;;;;;;;;;5038747;28;20049;-65
2024/03/21 07:44:55;;;;;;;5.78;3.85;;;;;;;;;;5034085;28;20418;-65
2024/03/21 07:47:22;;;;;;;6.07;3.65;;;;;;;;;;5040251;28;20041;-64
2024/03/21 07:49:48;;;;;;;4.75;3.55;;;;;;;;;;5041398;28;20056;-64
2024/03/21 07:52:14;;;;;;;6.97;3.38;;;;;;;;;;5043095;28;20036;-64
2024/03/21 07:54:40;;;;;;;5.68;4.00;;;;;;;;;;5041947;28;20049;-65
2024/03/21 07:57:06;;;;;;;5.25;3.70;;;;;;;;;;5031281;28;20490;-65
2024/03/21 07:59:32;;;;;;;7.25;4.28;;;;;;;;;;5035821;28;20518;-66
2024/03/21 08:01:59;;;;;;;5.15;3.92;;;;;;;;;;5034057;28;20040;-67
2024/03/21 08:04:25;;;;;;;6.43;3.75;;;;;;;;;;5032746;28;20045;-66
2024/03/21 08:06:51;;;;;;;6.07;3.85;;;;;;;;;;5035371;28;20041;-64
2024/03/21 08:09:17;;;;;;;5.20;3.70;;;;;;;;;;5006260;28;20029;-64
2024/03/21 08:11:43;;;;;;;5.90;4.00;;;;;;;;;;5039029;28;20038;-63
2024/03/21 08:14:09;;;;;;;6.35;4.30;;;;;;;;;;5035208;28;20049;-63
2024/03/21 08:16:35;;;;;;;5.10;3.88;;;;;;;;;;5038536;28;20049;-65
2024/03/21 08:19:01;;;;;;;6.88;4.20;;;;;;;;;;5045460;28;20352;-63
2024/03/21 08:21:27;;;;;;;4.47;3.70;;;;;;;;;;5024791;28;20052;-63
2024/03/21 08:23:53;;;;;;;6.68;4.22;;;;;;;;;;5014219;28;20044;-63
2024/03/21 08:26:19;;;;;;;6.45;3.58;;;;;;;;;;5042699;28;20025;-62
2024/03/21 08:28:46;;;;;;;4.43;3.30;;;;;;;;;;5034502;28;20049;-63
2024/03/21 08:31:12;;;;;;;5.38;3.88;;;;;;;;;;5034356;28;20041;-62
2024/03/21 08:33:38;;;;;;;4.97;3.63;;;;;;;;;;5036595;28;20398;-63
2024/03/21 08:36:04;;;;;;;5.07;3.60;;;;;;;;;;5024316;28;20037;-62
2024/03/21 08:38:31;;;;;;;5.93;3.15;;;;;;;;;;5037009;28;20049;-63
2024/03/21 08:40:57;;;;;;;4.95;3.78;;;;;;;;;;5037495;28;20520;-63
2024/03/21 08:43:24;;;;;;;5.43;3.45;;;;;;;;;;5043581;28;20039;-63
2024/03/21 08:45:53;;;;;;;4.30;3.08;;;;;;;;;;5032616;28;20041;-63
2024/03/21 08:48:19;;;;;;;5.72;3.40;;;;;;;;;;5031164;28;20041;-63
2024/03/21 08:50:47;;;;;;;4.72;3.38;;;;;;;;;;5032618;28;20045;-64
2024/03/21 08:53:15;;;;;;;5.80;3.58;;;;;;;;;;5028747;28;20041;-61
2024/03/21 08:55:41;;;;;;;5.20;3.40;;;;;;;;;;5035927;28;20486;-62
2024/03/21 08:58:07;;;;;;;6.32;3.20;;;;;;;;;;5034670;28;20067;-62
2024/03/21 09:00:33;;;;;;;5.35;3.20;;;;;;;;;;5035524;28;20037;-62
2024/03/21 09:03:00;;;;;;;6.70;3.72;;;;;;;;;;5036629;28;20049;-61
2024/03/21 09:05:27;;;;;;;8.05;5.03;;;;;;;;;;5021395;28;20040;-62
2024/03/21 09:07:54;;;;;;;5.70;3.47;;;;;;;;;;5017584;28;20517;-62
2024/03/21 09:10:20;;;;;;;4.60;3.50;;;;;;;;;;5038161;28;20033;-62
2024/03/21 09:12:47;;;;;;;3.58;2.58;;;;;;;;;;5040285;28;20410;-61
2024/03/21 09:15:14;;;;;;;5.45;3.28;;;;;;;;;;5018054;28;20410;-61
2024/03/21 09:17:41;;;;;;;5.85;3.60;;;;;;;;;;5037300;28;20049;-61
2024/03/21 09:20:08;;;;;;;6.43;3.95;;;;;;;;;;5038902;28;20534;-62
2024/03/21 09:22:35;;;;;;;5.35;3.60;;;;;;;;;;5040343;28;20068;-60
2024/03/21 09:25:02;;;;;;;4.90;3.63;;;;;;;;;;5041038;28;20402;-62
2024/03/21 09:27:29;;;;;;;4.38;3.50;;;;;;;;;;5019871;28;20491;-62
2024/03/21 09:29:56;;;;;;;4.82;3.53;;;;;;;;;;5029940;28;20064;-61
2024/03/21 09:32:22;;;;;;;6.30;3.25;;;;;;;;;;5035257;28;20415;-61
2024/03/21 09:34:51;;;;;;;4.68;3.47;;;;;;;;;;5038399;28;20063;-61
2024/03/21 09:37:23;;;;;;;4.82;3.58;;;;;;;;;;5027329;28;20059;-61
2024/03/21 09:39:49;;;;;;;6.07;3.60;;;;;;;;;;5040045;28;20033;-60
2024/03/21 09:42:17;;;;;;;4.97;3.80;;;;;;;;;;5034599;28;20383;-61
2024/03/21 09:44:48;;;;;;;4.90;3.40;;;;;;;;;;5028815;28;20036;-61
2024/03/21 09:47:25;;;;;;;5.95;3.72;;;;;;;;;;5036260;28;20025;-61
2024/03/21 09:49:51;;;;;;;4.90;3.63;;;;;;;;;;5036676;28;20051;-61
2024/03/21 09:52:18;;;;;;;6.55;4.00;;;;;;;;;;5039973;28;20043;-61
2024/03/21 09:54:44;;;;;;;5.30;4.03;;;;;;;;;;5037731;28;20064;-61
2024/03/21 09:57:13;;;;;;;7.13;4.40;;;;;;;;;;5031472;28;20036;-61
2024/03/21 09:59:40;;;;;;;6.97;4.07;;;;;;;;;;5036986;28;20052;-61
2024/03/21 10:02:09;;;;;;;7.10;3.78;;;;;;;;;;5016532;28;20049;-62
2024/03/21 10:04:42;;;;;;;6.35;4.40;;;;;;;;;;5028224;28;20056;-61
2024/03/21 10:07:17;;;;;;;7.22;3.92;;;;;;;;;;5028934;28;20038;-61
2024/03/21 10:09:51;;;;;;;5.43;4.22;;;;;;;;;;5019127;28;20033;-61
2024/03/21 10:12:17;;;;;;;6.50;4.78;;;;;;;;;;5042315;28;20037;-61
2024/03/21 10:14:43;;;;;;;6.20;4.25;;;;;;;;;;5044784;28;20052;-61
2024/03/21 10:17:10;;;;;;;6.22;4.38;;;;;;;;;;5035781;28;20056;-61
2024/03/21 10:19:36;;;;;;;6.75;5.00;;;;;;;;;;5041310;28;20370;-61
2024/03/21 10:22:03;;;;;;;6.30;4.60;;;;;;;;;;5036471;28;20045;-61
2024/03/21 10:24:30;;;;;;;6.60;5.07;;;;;;;;;;5042423;28;20359;-62
2024/03/21 10:26:56;;;;;;;6.88;5.13;;;;;;;;;;5039635;28;20648;-61
2024/03/21 10:29:23;;;;;;;7.53;4.75;;;;;;;;;;5030316;28;20036;-62
2024/03/21 10:31:50;;;;;;;5.68;4.47;;;;;;;;;;5035842;28;20032;-61
2024/03/21 10:34:18;;;;;;;4.65;4.07;;;;;;;;;;5035035;28;20383;-61
2024/03/21 10:36:44;;;;;;;5.35;4.38;;;;;;;;;;5038716;28;20110;-61
2024/03/21 10:39:10;;;;;;;4.97;4.28;;;;;;;;;;5041051;28;20045;-62
2024/03/21 10:41:41;;;;;;;5.53;4.32;;;;;;;;;;5041825;28;20394;-61
2024/03/21 10:44:14;;;;;;;5.60;4.53;;;;;;;;;;5035375;28;20133;-62
2024/03/21 10:46:40;;;;;;;8.35;5.15;;;;;;;;;;5039166;28;20406;-61
2024/03/21 10:49:06;;;;;;;7.28;4.05;;;;;;;;;;5036986;28;20067;-62
2024/03/21 10:51:40;;;;;;;5.28;4.15;;;;;;;;;;5041490;28;20045;-62
2024/03/21 10:54:13;;;;;;;6.63;4.40;;;;;;;;;;5036408;28;20037;-63
2024/03/21 10:56:40;;;;;;;6.38;4.18;;;;;;;;;;5036178;28;20387;-62
2024/03/21 10:59:06;;;;;;;6.50;4.40;;;;;;;;;;5032471;28;20041;-62
2024/03/21 11:01:39;;;;;;;7.93;5.10;;;;;;;;;;5037493;28;20029;-61
2024/03/21 11:04:06;;;;;;;8.02;4.43;;;;;;;;;;5022680;28;20047;-61
2024/03/21 11:06:37;;;;;;;6.25;4.57;;;;;;;;;;5035236;28;20049;-61
2024/03/21 11:09:05;;;;;;;4.68;3.80;;;;;;;;;;5037935;28;20033;-61
2024/03/21 11:11:32;;;;;;;6.22;5.05;;;;;;;;;;5041903;28;20470;-61
2024/03/21 11:14:06;;;;;;;6.22;4.75;;;;;;;;;;5031297;28;20116;-61
2024/03/21 11:16:33;;;;;;;7.55;5.32;;;;;;;;;;5041764;28;20045;-63
2024/03/21 11:18:59;;;;;;;5.82;4.72;;;;;;;;;;5018994;28;20033;-62
2024/03/21 11:21:25;;;;;;;7.32;5.20;;;;;;;;;;5036484;28;20053;-61
2024/03/21 11:23:52;;;;;;;7.05;4.65;;;;;;;;;;5039529;28;20055;-62
2024/03/21 11:26:19;;;;;;;7.63;4.72;;;;;;;;;;5037600;28;20048;-61
2024/03/21 11:28:46;;;;;;;5.03;4.30;;;;;;;;;;5035962;28;20566;-62
2024/03/21 11:31:28;;;;;;;6.43;4.57;;;;;;;;;;5035325;28;20056;-66
2024/03/21 11:33:54;;;;;;;7.38;4.72;;;;;;;;;;5032632;28;20032;-66
2024/03/21 11:36:22;;;;;;;7.18;4.40;;;;;;;;;;5016094;28;20056;-66
2024/03/21 11:38:48;;;;;;;6.20;4.20;;;;;;;;;;5028678;28;20041;-66
2024/03/21 11:41:19;;;;;;;7.32;4.70;;;;;;;;;;5039752;28;20036;-66
2024/03/21 11:43:50;;;;;;;5.18;3.80;;;;;;;;;;5030566;28;20430;-66
2024/03/21 11:46:19;;;;;;;6.45;3.70;;;;;;;;;;5027588;28;20029;-65
2024/03/21 11:48:59;;;;;;;5.43;3.60;;;;;;;;;;5041155;28;20049;-65
2024/03/21 11:51:25;;;;;;;8.82;3.83;;;;;;;;;;5040606;28;20509;-66
2024/03/21 11:53:51;;;;;;;4.13;3.50;;;;;;;;;;5011805;28;20037;-65
2024/03/21 11:56:18;;;;;;;4.85;3.35;;;;;;;;;;5036627;28;20033;-65
2024/03/21 11:58:44;;;;;;;4.88;3.30;;;;;;;;;;5013426;28;20471;-65
2024/03/21 12:01:10;;;;;;;6.07;2.92;;;;;;;;;;4995996;28;20056;-65
2024/03/21 12:03:36;;;;;;;5.88;3.17;;;;;;;;;;5012857;28;20045;-65
2024/03/21 12:06:02;;;;;;;4.07;2.85;;;;;;;;;;5035998;28;20514;-65
2024/03/21 12:08:29;;;;;;;6.60;3.50;;;;;;;;;;5017044;28;20045;-66
2024/03/21 12:10:55;;;;;;;5.90;3.15;;;;;;;;;;5022416;28;20414;-67
2024/03/21 12:13:22;;;;;;;6.20;3.47;;;;;;;;;;5019430;28;20510;-66
2024/03/21 12:15:48;;;;;;;5.28;3.30;;;;;;;;;;5014858;28;20072;-66
2024/03/21 12:18:14;;;;;;;5.22;3.25;;;;;;;;;;5006453;28;20032;-66
2024/03/21 12:20:42;;;;;;;4.50;2.83;;;;;;;;;;5022752;28;20053;-67
2024/03/21 12:23:08;;;;;;;4.93;2.60;;;;;;;;;;5016169;28;20044;-68
2024/03/21 12:25:34;;;;;;;7.88;3.35;;;;;;;;;;5016667;28;20391;-66
2024/03/21 12:28:00;;;;;;;4.07;2.70;;;;;;;;;;5031150;28;20036;-66
2024/03/21 12:30:28;;;;;;;4.40;3.20;;;;;;;;;;5036056;28;20064;-66
2024/03/21 12:32:54;;;;;;;5.10;3.17;;;;;;;;;;5015997;28;20045;-65
2024/03/21 12:35:20;;;;;;;5.88;3.13;;;;;;;;;;5014145;28;20538;-66
2024/03/21 12:37:50;;;;;;;6.00;2.90;;;;;;;;;;5031905;28;20052;-67
2024/03/21 12:40:17;;;;;;;6.80;3.33;;;;;;;;;;5032362;28;20454;-66
2024/03/21 12:42:43;;;;;;;7.68;3.60;;;;;;;;;;5032863;28;20049;-68
2024/03/21 12:45:09;;;;;;;4.68;3.60;;;;;;;;;;5034139;28;20509;-66
2024/03/21 12:47:35;;;;;;;4.20;3.10;;;;;;;;;;5032122;28;20049;-65
2024/03/21 12:50:02;;;;;;;6.22;3.45;;;;;;;;;;5022056;28;20052;-66
2024/03/21 12:52:30;;;;;;;4.55;2.92;;;;;;;;;;5028876;28;20041;-66
2024/03/21 12:54:56;;;;;;;4.95;3.10;;;;;;;;;;5033996;28;20041;-67
2024/03/21 12:57:23;;;;;;;5.00;3.22;;;;;;;;;;5029170;28;20050;-67
2024/03/21 12:59:49;;;;;;;4.57;2.85;;;;;;;;;;5014745;28;20064;-67
2024/03/21 13:02:15;;;;;;;5.70;3.10;;;;;;;;;;5010733;28;20147;-67
2024/03/21 13:04:44;;;;;;;5.18;3.08;;;;;;;;;;5031157;28;20068;-66
2024/03/21 13:07:11;;;;;;;;;;;;;;;;;;5041281;28;20399;-65
2024/03/21 13:09:37;;;;;;;6.63;3.42;;;;;;;;;;5014231;28;19920;-67
2024/03/21 13:12:03;;;;;;;4.20;3.25;;;;;;;;;;5036219;28;20046;-66
2024/03/21 13:14:29;;;;;;;5.18;3.00;;;;;;;;;;5013851;28;20048;-67
2024/03/21 13:16:56;;;;;;;5.95;3.47;;;;;;;;;;5026033;28;20054;-65
2024/03/21 13:19:23;;;;;;;5.70;3.50;;;;;;;;;;5034290;28;20048;-66
2024/03/21 13:21:49;;;;;;;5.95;3.53;;;;;;;;;;5036154;28;20044;-67
2024/03/21 13:24:15;;;;;;;9.18;3.22;;;;;;;;;;5024464;28;20048;-66
2024/03/21 13:26:42;;;;;;;5.75;3.58;;;;;;;;;;5027079;28;20059;-66
2024/03/21 13:29:08;;;;;;;5.82;3.75;;;;;;;;;;5033102;28;20045;-66
2024/03/21 13:31:35;;;;;;;10.18;4.00;;;;;;;;;;5010308;28;20049;-65
2024/03/21 13:34:01;;;;;;;7.22;3.85;;;;;;;;;;5034914;28;20433;-66
2024/03/21 13:36:27;;;;;;;5.93;3.72;;;;;;;;;;5000215;28;20048;-65
2024/03/21 13:38:57;;;;;;;9.10;3.90;;;;;;;;;;5003628;28;20499;-67
2024/03/21 13:41:23;;;;;;;6.25;3.92;;;;;;;;;;5035286;28;20036;-65
2024/03/21 13:43:50;;;;;;;6.32;4.22;;;;;;;;;;5035342;28;20049;-68
2024/03/21 13:46:16;;;;;;;6.40;4.30;;;;;;;;;;5027434;28;20044;-67
2024/03/21 13:48:42;;;;;;;10.52;5.25;;;;;;;;;;5021679;28;20049;-66
2024/03/21 13:51:08;;;;;;;6.63;4.72;;;;;;;;;;5018670;28;20410;-65
2024/03/21 13:53:34;;;;;;;7.28;4.25;;;;;;;;;;5023374;28;20045;-66
2024/03/21 13:56:01;;;;;;;7.18;4.82;;;;;;;;;;5024233;28;20040;-66
2024/03/21 13:58:28;;;;;;;6.78;4.90;;;;;;;;;;5037662;28;20045;-66
2024/03/21 14:00:54;;;;;;;9.07;4.93;;;;;;;;;;5036711;28;20052;-66
2024/03/21 14:03:22;;;;;;;8.88;4.55;;;;;;;;;;5033195;28;20044;-67
2024/03/21 14:05:50;;;;;;;9.07;6.05;;;;;;;;;;5022296;28;20421;-67
2024/03/21 14:08:17;;;;;;;11.68;5.97;;;;;;;;;;5046513;28;20041;-67
2024/03/21 14:10:43;;;;;;;9.35;5.55;;;;;;;;;;5037830;28;20057;-67
2024/03/21 14:13:13;;;;;;;9.00;5.97;;;;;;;;;;5033620;28;20052;-66
2024/03/21 14:15:39;;;;;;;9.13;5.60;;;;;;;;;;5021192;28;20524;-65
2024/03/21 14:18:05;;;;;;;10.13;6.47;;;;;;;;;;5039794;28;20052;-65
2024/03/21 14:20:31;;;;;;;7.97;5.32;;;;;;;;;;5042949;28;20064;-65
2024/03/21 14:22:58;;;;;;;10.60;6.68;;;;;;;;;;5043391;28;20029;-66
2024/03/21 14:25:24;;;;;;;8.80;6.20;;;;;;;;;;5026373;28;20037;-66
2024/03/21 14:27:50;;;;;;;8.93;5.78;;;;;;;;;;5036604;28;20384;-67
2024/03/21 14:30:16;;;;;;;18.75;6.55;;;;;;;;;;5037175;28;20044;-66
2024/03/21 14:32:42;;;;;;;9.77;6.40;;;;;;;;;;5017834;28;20045;-66
2024/03/21 14:35:09;;;;;;;13.50;6.38;;;;;;;;;;5036754;28;20047;-67
2024/03/21 14:37:37;;;;;;;10.23;6.57;;;;;;;;;;5027152;28;20049;-66
2024/03/21 14:40:07;;;;;;;11.77;6.05;;;;;;;;;;5022610;28;20052;-66
2024/03/21 14:42:34;;;;;;;9.95;6.50;;;;;;;;;;5038021;28;20045;-66
2024/03/21 14:45:00;;;;;;;12.95;6.50;;;;;;;;;;5020990;28;20036;-65